sensor_id;sensor_type;location;lat;lon;timestamp;P1;durP1;ratioP1;P2;durP2;ratioP2
46597;SDS011;32318;48.858;8.252;2023-08-06T00:04:49;5.97;;;2.08;;
46597;SDS011;32318;48.858;8.252;2023-08-06T00:12:49;3.45;;;2.15;;
46597;SDS011;32318;48.858;8.252;2023-08-06T00:20:49;5.78;;;2.10;;
46597;SDS011;32318;48.858;8.252;2023-08-06T00:28:49;5.45;;;2.28;;
46597;SDS011;32318;48.858;8.252;2023-08-06T00:36:50;4.18;;;2.10;;
46597;SDS011;32318;48.858;8.252;2023-08-06T00:44:50;3.53;;;1.98;;
46597;SDS011;32318;48.858;8.252;2023-08-06T00:52:50;3.78;;;1.70;;
46597;SDS011;32318;48.858;8.252;2023-08-06T01:00:51;4.90;;;2.25;;
46597;SDS011;32318;48.858;8.252;2023-08-06T01:08:54;7.03;;;1.70;;
46597;SDS011;32318;48.858;8.252;2023-08-06T01:16:58;5.57;;;1.80;;
46597;SDS011;32318;48.858;8.252;2023-08-06T01:25:01;8.07;;;2.30;;
46597;SDS011;32318;48.858;8.252;2023-08-06T01:33:02;3.03;;;1.38;;
46597;SDS011;32318;48.858;8.252;2023-08-06T01:41:05;5.97;;;2.17;;
46597;SDS011;32318;48.858;8.252;2023-08-06T01:49:05;5.47;;;2.10;;
46597;SDS011;32318;48.858;8.252;2023-08-06T01:57:06;5.47;;;2.03;;
46597;SDS011;32318;48.858;8.252;2023-08-06T02:05:06;4.55;;;1.88;;
46597;SDS011;32318;48.858;8.252;2023-08-06T02:13:06;7.70;;;1.80;;
46597;SDS011;32318;48.858;8.252;2023-08-06T02:21:07;6.20;;;2.00;;
46597;SDS011;32318;48.858;8.252;2023-08-06T02:29:07;10.50;;;2.70;;
46597;SDS011;32318;48.858;8.252;2023-08-06T02:37:07;8.95;;;2.15;;
46597;SDS011;32318;48.858;8.252;2023-08-06T02:45:08;3.25;;;1.75;;
46597;SDS011;32318;48.858;8.252;2023-08-06T02:53:08;5.05;;;1.90;;
46597;SDS011;32318;48.858;8.252;2023-08-06T03:01:09;5.25;;;2.03;;
46597;SDS011;32318;48.858;8.252;2023-08-06T03:09:09;12.70;;;2.08;;
46597;SDS011;32318;48.858;8.252;2023-08-06T03:17:09;6.05;;;1.30;;
46597;SDS011;32318;48.858;8.252;2023-08-06T03:25:10;4.63;;;1.50;;
46597;SDS011;32318;48.858;8.252;2023-08-06T03:33:10;3.97;;;1.50;;
46597;SDS011;32318;48.858;8.252;2023-08-06T03:41:11;6.07;;;1.33;;
46597;SDS011;32318;48.858;8.252;2023-08-06T03:49:11;3.53;;;1.10;;
46597;SDS011;32318;48.858;8.252;2023-08-06T03:57:11;6.63;;;1.02;;
46597;SDS011;32318;48.858;8.252;2023-08-06T04:05:12;7.03;;;0.98;;
46597;SDS011;32318;48.858;8.252;2023-08-06T04:13:12;1.37;;;0.80;;
46597;SDS011;32318;48.858;8.252;2023-08-06T04:21:12;4.53;;;1.38;;
46597;SDS011;32318;48.858;8.252;2023-08-06T04:29:13;3.45;;;1.73;;
46597;SDS011;32318;48.858;8.252;2023-08-06T04:37:13;6.15;;;1.23;;
46597;SDS011;32318;48.858;8.252;2023-08-06T04:45:13;5.32;;;2.20;;
46597;SDS011;32318;48.858;8.252;2023-08-06T04:53:14;5.78;;;1.90;;
46597;SDS011;32318;48.858;8.252;2023-08-06T05:01:14;4.83;;;1.37;;
46597;SDS011;32318;48.858;8.252;2023-08-06T05:09:14;17.33;;;1.83;;
46597;SDS011;32318;48.858;8.252;2023-08-06T05:17:17;10.70;;;1.48;;
46597;SDS011;32318;48.858;8.252;2023-08-06T05:25:27;10.13;;;1.70;;
46597;SDS011;32318;48.858;8.252;2023-08-06T05:33:27;4.03;;;1.10;;
46597;SDS011;32318;48.858;8.252;2023-08-06T05:41:28;7.22;;;1.00;;
46597;SDS011;32318;48.858;8.252;2023-08-06T05:49:28;3.05;;;0.95;;
46597;SDS011;32318;48.858;8.252;2023-08-06T05:57:28;4.07;;;1.10;;
46597;SDS011;32318;48.858;8.252;2023-08-06T06:05:29;3.25;;;0.70;;
46597;SDS011;32318;48.858;8.252;2023-08-06T06:13:29;4.13;;;0.65;;
46597;SDS011;32318;48.858;8.252;2023-08-06T06:21:29;4.78;;;0.60;;
46597;SDS011;32318;48.858;8.252;2023-08-06T06:29:30;5.20;;;0.95;;
46597;SDS011;32318;48.858;8.252;2023-08-06T06:37:30;4.25;;;0.70;;
46597;SDS011;32318;48.858;8.252;2023-08-06T06:45:30;3.15;;;0.90;;
46597;SDS011;32318;48.858;8.252;2023-08-06T06:53:31;1.50;;;0.60;;
46597;SDS011;32318;48.858;8.252;2023-08-06T07:01:31;4.65;;;0.80;;
46597;SDS011;32318;48.858;8.252;2023-08-06T07:09:31;2.05;;;0.50;;
46597;SDS011;32318;48.858;8.252;2023-08-06T07:17:32;5.43;;;0.70;;
46597;SDS011;32318;48.858;8.252;2023-08-06T07:25:33;6.57;;;0.70;;
46597;SDS011;32318;48.858;8.252;2023-08-06T07:33:36;1.95;;;0.75;;
46597;SDS011;32318;48.858;8.252;2023-08-06T07:41:38;3.38;;;0.90;;
46597;SDS011;32318;48.858;8.252;2023-08-06T07:49:44;3.35;;;1.02;;
46597;SDS011;32318;48.858;8.252;2023-08-06T07:57:44;4.80;;;0.50;;
46597;SDS011;32318;48.858;8.252;2023-08-06T08:05:45;4.30;;;0.57;;
46597;SDS011;32318;48.858;8.252;2023-08-06T08:14:06;1.77;;;0.65;;
46597;SDS011;32318;48.858;8.252;2023-08-06T08:22:40;4.93;;;1.15;;
46597;SDS011;32318;48.858;8.252;2023-08-06T08:30:50;6.10;;;1.17;;
46597;SDS011;32318;48.858;8.252;2023-08-06T08:38:50;6.25;;;0.73;;
46597;SDS011;32318;48.858;8.252;2023-08-06T08:46:57;5.70;;;1.20;;
46597;SDS011;32318;48.858;8.252;2023-08-06T08:54:59;3.67;;;0.82;;
46597;SDS011;32318;48.858;8.252;2023-08-06T09:03:01;7.25;;;0.88;;
46597;SDS011;32318;48.858;8.252;2023-08-06T09:11:04;4.47;;;1.02;;
46597;SDS011;32318;48.858;8.252;2023-08-06T09:19:12;6.43;;;0.65;;
46597;SDS011;32318;48.858;8.252;2023-08-06T09:27:15;3.20;;;0.82;;
46597;SDS011;32318;48.858;8.252;2023-08-06T09:35:17;1.38;;;0.60;;
46597;SDS011;32318;48.858;8.252;2023-08-06T09:43:18;1.70;;;0.47;;
46597;SDS011;32318;48.858;8.252;2023-08-06T09:51:19;2.05;;;0.50;;
46597;SDS011;32318;48.858;8.252;2023-08-06T09:59:19;0.50;;;0.40;;
46597;SDS011;32318;48.858;8.252;2023-08-06T10:07:20;1.60;;;0.80;;
46597;SDS011;32318;48.858;8.252;2023-08-06T10:15:24;1.80;;;0.50;;
46597;SDS011;32318;48.858;8.252;2023-08-06T10:23:36;1.23;;;0.60;;
46597;SDS011;32318;48.858;8.252;2023-08-06T10:31:54;6.43;;;0.65;;
46597;SDS011;32318;48.858;8.252;2023-08-06T10:39:55;11.43;;;3.08;;
46597;SDS011;32318;48.858;8.252;2023-08-06T10:47:56;3.10;;;1.48;;
46597;SDS011;32318;48.858;8.252;2023-08-06T10:55:57;3.80;;;1.38;;
46597;SDS011;32318;48.858;8.252;2023-08-06T11:04:01;5.20;;;1.30;;
46597;SDS011;32318;48.858;8.252;2023-08-06T11:12:02;5.05;;;1.67;;
46597;SDS011;32318;48.858;8.252;2023-08-06T11:20:09;6.32;;;1.80;;
46597;SDS011;32318;48.858;8.252;2023-08-06T11:28:10;9.30;;;2.40;;
46597;SDS011;32318;48.858;8.252;2023-08-06T11:36:10;4.57;;;1.80;;
46597;SDS011;32318;48.858;8.252;2023-08-06T11:44:10;4.90;;;1.65;;
46597;SDS011;32318;48.858;8.252;2023-08-06T12:00:15;3.88;;;1.30;;
46597;SDS011;32318;48.858;8.252;2023-08-06T12:08:17;4.25;;;1.40;;
46597;SDS011;32318;48.858;8.252;2023-08-06T12:16:18;8.48;;;2.28;;
46597;SDS011;32318;48.858;8.252;2023-08-06T12:24:19;3.42;;;1.00;;
46597;SDS011;32318;48.858;8.252;2023-08-06T12:32:19;2.72;;;0.90;;
46597;SDS011;32318;48.858;8.252;2023-08-06T12:40:19;6.10;;;0.73;;
46597;SDS011;32318;48.858;8.252;2023-08-06T12:48:24;1.88;;;0.70;;
46597;SDS011;32318;48.858;8.252;2023-08-06T12:56:24;3.40;;;0.60;;
46597;SDS011;32318;48.858;8.252;2023-08-06T13:04:24;3.13;;;1.00;;
46597;SDS011;32318;48.858;8.252;2023-08-06T13:12:25;1.03;;;0.60;;
46597;SDS011;32318;48.858;8.252;2023-08-06T13:20:25;2.25;;;0.60;;
46597;SDS011;32318;48.858;8.252;2023-08-06T13:28:26;2.90;;;0.50;;
46597;SDS011;32318;48.858;8.252;2023-08-06T13:36:26;8.25;;;0.85;;
46597;SDS011;32318;48.858;8.252;2023-08-06T13:44:26;2.42;;;0.75;;
46597;SDS011;32318;48.858;8.252;2023-08-06T13:52:28;2.05;;;0.70;;
46597;SDS011;32318;48.858;8.252;2023-08-06T14:00:29;6.18;;;2.22;;
46597;SDS011;32318;48.858;8.252;2023-08-06T14:08:30;2.25;;;0.90;;
46597;SDS011;32318;48.858;8.252;2023-08-06T14:16:30;3.42;;;0.77;;
46597;SDS011;32318;48.858;8.252;2023-08-06T14:24:30;1.23;;;0.60;;
46597;SDS011;32318;48.858;8.252;2023-08-06T14:32:31;2.38;;;0.43;;
46597;SDS011;32318;48.858;8.252;2023-08-06T14:40:31;7.90;;;0.57;;
46597;SDS011;32318;48.858;8.252;2023-08-06T14:48:34;5.55;;;0.57;;
46597;SDS011;32318;48.858;8.252;2023-08-06T14:56:35;2.33;;;0.70;;
46597;SDS011;32318;48.858;8.252;2023-08-06T15:04:35;6.45;;;0.90;;
46597;SDS011;32318;48.858;8.252;2023-08-06T15:12:36;3.05;;;0.70;;
46597;SDS011;32318;48.858;8.252;2023-08-06T15:20:39;3.80;;;0.73;;
46597;SDS011;32318;48.858;8.252;2023-08-06T15:28:39;6.07;;;1.10;;
46597;SDS011;32318;48.858;8.252;2023-08-06T15:36:39;4.40;;;0.80;;
46597;SDS011;32318;48.858;8.252;2023-08-06T15:44:40;1.83;;;0.70;;
46597;SDS011;32318;48.858;8.252;2023-08-06T15:52:40;2.15;;;0.60;;
46597;SDS011;32318;48.858;8.252;2023-08-06T16:00:41;1.15;;;0.60;;
46597;SDS011;32318;48.858;8.252;2023-08-06T16:08:41;2.05;;;0.90;;
46597;SDS011;32318;48.858;8.252;2023-08-06T16:16:41;1.83;;;0.82;;
46597;SDS011;32318;48.858;8.252;2023-08-06T16:24:42;2.28;;;0.85;;
46597;SDS011;32318;48.858;8.252;2023-08-06T16:32:45;1.92;;;0.80;;
46597;SDS011;32318;48.858;8.252;2023-08-06T16:40:52;3.10;;;0.90;;
46597;SDS011;32318;48.858;8.252;2023-08-06T16:48:53;6.20;;;1.38;;
46597;SDS011;32318;48.858;8.252;2023-08-06T16:56:53;4.13;;;1.15;;
46597;SDS011;32318;48.858;8.252;2023-08-06T17:04:56;4.07;;;1.20;;
46597;SDS011;32318;48.858;8.252;2023-08-06T17:12:56;4.43;;;1.23;;
46597;SDS011;32318;48.858;8.252;2023-08-06T17:20:58;8.15;;;1.90;;
46597;SDS011;32318;48.858;8.252;2023-08-06T17:28:59;3.70;;;1.33;;
46597;SDS011;32318;48.858;8.252;2023-08-06T17:36:59;3.75;;;1.30;;
46597;SDS011;32318;48.858;8.252;2023-08-06T17:45:00;2.20;;;1.30;;
46597;SDS011;32318;48.858;8.252;2023-08-06T17:53:00;5.63;;;1.27;;
46597;SDS011;32318;48.858;8.252;2023-08-06T18:01:00;4.38;;;1.25;;
46597;SDS011;32318;48.858;8.252;2023-08-06T18:09:03;5.30;;;1.40;;
46597;SDS011;32318;48.858;8.252;2023-08-06T18:17:04;9.23;;;1.20;;
46597;SDS011;32318;48.858;8.252;2023-08-06T18:25:05;5.45;;;1.15;;
46597;SDS011;32318;48.858;8.252;2023-08-06T18:33:07;5.82;;;1.35;;
46597;SDS011;32318;48.858;8.252;2023-08-06T18:41:07;4.75;;;1.23;;
46597;SDS011;32318;48.858;8.252;2023-08-06T18:49:08;4.78;;;1.17;;
46597;SDS011;32318;48.858;8.252;2023-08-06T18:57:08;4.43;;;1.02;;
46597;SDS011;32318;48.858;8.252;2023-08-06T19:05:09;7.68;;;1.30;;
46597;SDS011;32318;48.858;8.252;2023-08-06T19:13:10;9.02;;;1.23;;
46597;SDS011;32318;48.858;8.252;2023-08-06T19:21:11;1.70;;;0.85;;
46597;SDS011;32318;48.858;8.252;2023-08-06T19:29:11;2.40;;;1.33;;
46597;SDS011;32318;48.858;8.252;2023-08-06T19:37:12;10.05;;;1.75;;
46597;SDS011;32318;48.858;8.252;2023-08-06T19:45:12;3.13;;;1.20;;
46597;SDS011;32318;48.858;8.252;2023-08-06T19:53:13;9.15;;;1.42;;
46597;SDS011;32318;48.858;8.252;2023-08-06T20:01:13;4.30;;;1.33;;
46597;SDS011;32318;48.858;8.252;2023-08-06T20:09:13;4.97;;;1.33;;
46597;SDS011;32318;48.858;8.252;2023-08-06T20:17:14;6.28;;;1.30;;
46597;SDS011;32318;48.858;8.252;2023-08-06T20:25:15;3.40;;;1.30;;
46597;SDS011;32318;48.858;8.252;2023-08-06T20:33:15;4.43;;;1.42;;
46597;SDS011;32318;48.858;8.252;2023-08-06T20:41:15;4.30;;;1.67;;
46597;SDS011;32318;48.858;8.252;2023-08-06T20:49:16;5.75;;;1.60;;
46597;SDS011;32318;48.858;8.252;2023-08-06T20:57:16;5.25;;;1.20;;
46597;SDS011;32318;48.858;8.252;2023-08-06T21:05:19;5.28;;;1.38;;
46597;SDS011;32318;48.858;8.252;2023-08-06T21:22:17;3.20;;;1.70;;
46597;SDS011;32318;48.858;8.252;2023-08-06T21:30:17;2.78;;;0.80;;
46597;SDS011;32318;48.858;8.252;2023-08-06T21:38:17;3.40;;;1.52;;
46597;SDS011;32318;48.858;8.252;2023-08-06T21:55:25;8.00;;;1.38;;
46597;SDS011;32318;48.858;8.252;2023-08-06T22:45:35;3.25;;;1.23;;
46597;SDS011;32318;48.858;8.252;2023-08-06T22:53:35;3.75;;;1.08;;
46597;SDS011;32318;48.858;8.252;2023-08-06T23:01:36;4.07;;;1.10;;
46597;SDS011;32318;48.858;8.252;2023-08-06T23:09:36;3.08;;;1.40;;
46597;SDS011;32318;48.858;8.252;2023-08-06T23:17:36;3.17;;;1.20;;
46597;SDS011;32318;48.858;8.252;2023-08-06T23:25:38;16.20;;;1.45;;
46597;SDS011;32318;48.858;8.252;2023-08-06T23:33:39;5.22;;;1.40;;
46597;SDS011;32318;48.858;8.252;2023-08-06T23:41:39;6.15;;;1.27;;
46597;SDS011;32318;48.858;8.252;2023-08-06T23:49:39;7.57;;;1.10;;
46597;SDS011;32318;48.858;8.252;2023-08-06T23:57:40;4.70;;;1.10;;
